Time;durP1;ratioP1;P1;durP2;ratioP2;P2;SDS_P1;SDS_P2;PMS_P1;PMS_P2;Temp;Humidity;BMP_temperature;BMP_pressure;BME280_temperature;BME280_humidity;BME280_pressure;Samples;Min_cycle;Max_cycle;Signal;HPM_P1;HPM_P2
2021/03/25 00:03:06;;;;;;;62.9;44.6;;;;;;;3.87;97.64941;99255.16;;;;
2021/03/25 00:13:04;;;;;;;58.7;42.7;;;;;;;3.88;97.71973;99259.44;;;;
2021/03/25 00:23:03;;;;;;;63.5;44.2;;;;;;;3.82;98.04785;99252.41;;;;
2021/03/25 00:33:01;;;;;;;61.3;49.9;;;;;;;3.75;98.49512;99249.12;;;;
2021/03/25 00:42:59;;;;;;;52.3;43.3;;;;;;;3.82;98.10254;99236.41;;;;
2021/03/25 00:52:57;;;;;;;55;44.1;;;;;;;3.79;98.31543;99244.91;;;;
2021/03/25 01:02:55;;;;;;;63.8;43.8;;;;;;;3.74;98.52344;99228.05;;;;
2021/03/25 01:12:53;;;;;;;53.6;41.8;;;;;;;3.75;98.83691;99230.45;;;;
2021/03/25 01:22:51;;;;;;;52;41;;;;;;;3.85;98.37402;99224.47;;;;
2021/03/25 01:32:49;;;;;;;52.6;46.5;;;;;;;3.71;99.15723;99208.04;;;;
2021/03/25 01:42:48;;;;;;;53.5;43.4;;;;;;;3.68;99.43848;99203.17;;;;
2021/03/25 01:52:44;;;;;;;52.5;43.3;;;;;;;3.71;99.48828;99189.38;;;;
2021/03/25 02:02:42;;;;;;;64.8;45.2;;;;;;;3.65;99.5293;99187.69;;;;
2021/03/25 02:12:40;;;;;;;55;46;;;;;;;3.68;99.49316;99184.52;;;;
2021/03/25 02:22:38;;;;;;;65.8;48.6;;;;;;;3.57;99.99609;99177.48;;;;
2021/03/25 02:32:36;;;;;;;77.4;49;;;;;;;3.64;99.20898;99186.09;;;;
2021/03/25 02:42:35;;;;;;;65.4;49;;;;;;;3.47;100;99177.34;;;;
2021/03/25 02:52:33;;;;;;;59.2;47.9;;;;;;;3.47;100;99180.02;;;;
2021/03/25 03:02:31;;;;;;;67.2;49.3;;;;;;;3.46;99.78516;99176.53;;;;
2021/03/25 03:12:29;;;;;;;68.8;49;;;;;;;3.4;100;99185.48;;;;
2021/03/25 03:22:27;;;;;;;64.7;50.9;;;;;;;3.37;100;99183.32;;;;
2021/03/25 03:32:25;;;;;;;61.4;53;;;;;;;3.3;100;99173.89;;;;
2021/03/25 03:42:23;;;;;;;58.6;48.1;;;;;;;3.32;100;99171.8;;;;
2021/03/25 03:52:21;;;;;;;67.9;46.1;;;;;;;3.32;100;99167.29;;;;
2021/03/25 04:02:19;;;;;;;68.5;55.4;;;;;;;3.37;100;99170;;;;
2021/03/25 04:12:16;;;;;;;60.4;45.3;;;;;;;3.24;100;99169.55;;;;
2021/03/25 04:22:15;;;;;;;45.8;39.7;;;;;;;3.25;100;99173.84;;;;
2021/03/25 04:32:12;;;;;;;42;37.5;;;;;;;3.26;100;99173.61;;;;
2021/03/25 04:42:11;;;;;;;41.5;35.7;;;;;;;3.34;100;99180.34;;;;
2021/03/25 04:52:17;;;;;;;42.7;36.8;;;;;;;3.45;100;99182.91;;;;
2021/03/25 05:02:06;;;;;;;57;42.8;;;;;;;3.4;100;99190.04;;;;
2021/03/25 05:12:04;;;;;;;50.5;41.4;;;;;;;3.46;100;99197.04;;;;
2021/03/25 05:22:02;;;;;;;57.2;44.7;;;;;;;3.51;100;99202.42;;;;
2021/03/25 05:32:00;;;;;;;70.2;49.4;;;;;;;3.53;100;99198.48;;;;
2021/03/25 05:41:58;;;;;;;66;48.3;;;;;;;3.48;100;99202.92;;;;
2021/03/25 05:51:56;;;;;;;64.4;50.6;;;;;;;3.71;100;99212.56;;;;
2021/03/25 06:01:56;;;;;;;74.4;51.4;;;;;;;3.68;100;99207.73;;;;
2021/03/25 06:11:53;;;;;;;78.1;54.5;;;;;;;3.95;100;99214.73;;;;
2021/03/25 06:21:51;;;;;;;63.2;53.5;;;;;;;4.16;100;99214.95;;;;
2021/03/25 06:31:49;;;;;;;63.1;49.5;;;;;;;4.44;100;99225.4;;;;
2021/03/25 06:41:47;;;;;;;67.7;46.7;;;;;;;4.69;99.50293;99222.14;;;;
2021/03/25 06:51:45;;;;;;;49.8;37.2;;;;;;;4.95;97.01074;99235.47;;;;
2021/03/25 07:01:44;;;;;;;45.8;33.3;;;;;;;5.13;95.96289;99234.28;;;;
2021/03/25 07:11:42;;;;;;;44.8;33.8;;;;;;;5.2;95.10352;99242.88;;;;
2021/03/25 07:21:40;;;;;;;42.1;29.4;;;;;;;5.38;92.625;99245.13;;;;
2021/03/25 07:31:38;;;;;;;39.7;34.3;;;;;;;5.65;93.30469;99239.7;;;;
2021/03/25 07:41:37;;;;;;;38.3;32.7;;;;;;;5.89;91.20117;99242.78;;;;
2021/03/25 07:51:35;;;;;;;38;29.6;;;;;;;6.02;88.8252;99250.33;;;;
2021/03/25 08:01:33;;;;;;;41.7;33.8;;;;;;;6.12;89.79102;99260.25;;;;
2021/03/25 08:11:32;;;;;;;38.6;33.5;;;;;;;6.45;89.03906;99263.34;;;;
2021/03/25 08:21:47;;;;;;;36.8;32.8;;;;;;;6.39;88.94727;99248.3;;;;
2021/03/25 08:31:39;;;;;;;39.1;30.2;;;;;;;6.75;85.74219;99243.02;;;;
2021/03/25 08:41:27;;;;;;;36.8;30.6;;;;;;;7.12;84.18457;99248.13;;;;
2021/03/25 08:51:25;;;;;;;31.9;26.2;;;;;;;7.14;82.02246;99256.72;;;;
2021/03/25 09:01:24;;;;;;;32.4;25.3;;;;;;;7.52;78.35547;99253.47;;;;
2021/03/25 09:11:22;;;;;;;29.5;23.9;;;;;;;7.83;76.05762;99246.95;;;;
2021/03/25 09:21:21;;;;;;;27.7;24;;;;;;;8.38;74.45898;99245.94;;;;
2021/03/25 09:31:19;;;;;;;31.4;23.8;;;;;;;8.75;71.06836;99240.06;;;;
2021/03/25 09:41:18;;;;;;;29.9;24.5;;;;;;;9.15;68.43945;99230.09;;;;
2021/03/25 09:51:18;;;;;;;36.4;28.4;;;;;;;9.37;69.34375;99228.53;;;;
2021/03/25 10:01:16;;;;;;;37.5;28.6;;;;;;;9.74;64.47754;99232.47;;;;
2021/03/25 10:11:46;;;;;;;34.7;25.1;;;;;;;10.21;61.21973;99224.39;;;;
2021/03/25 10:21:15;;;;;;;38;27.2;;;;;;;9.37;62.98926;99220.45;;;;
2021/03/25 10:31:20;;;;;;;41.2;29.4;;;;;;;10.24;61.59668;99212.25;;;;
2021/03/25 10:41:18;;;;;;;31.7;28.3;;;;;;;10.15;62.77344;99214.78;;;;
2021/03/25 10:51:17;;;;;;;38.6;29.3;;;;;;;9.92;59.9668;99207.51;;;;
2021/03/25 11:01:21;;;;;;;36.1;28.3;;;;;;;10.06;61.79785;99198.45;;;;
2021/03/25 11:11:08;;;;;;;36.1;30.4;;;;;;;9.93;59.67383;99190.23;;;;
2021/03/25 11:21:07;;;;;;;35.5;29.8;;;;;;;9.99;61.73145;99183.72;;;;
2021/03/25 11:31:06;;;;;;;41.7;32.3;;;;;;;10.3;59.58789;99184.15;;;;
2021/03/25 11:41:04;;;;;;;42.1;32.4;;;;;;;10.41;59.17285;99174.84;;;;
2021/03/25 11:51:03;;;;;;;39.1;30.4;;;;;;;10.09;60.85254;99162.85;;;;
2021/03/25 12:01:02;;;;;;;44.2;32.2;;;;;;;10.49;59.49023;99168.77;;;;
2021/03/25 12:11:01;;;;;;;37.9;32.3;;;;;;;10.3;59.4873;99163.41;;;;
2021/03/25 12:21:02;;;;;;;37.8;31.9;;;;;;;10.88;61.17773;99158.45;;;;
2021/03/25 12:30:59;;;;;;;35.2;31.6;;;;;;;10.9;58.28613;99158.94;;;;
2021/03/25 12:40:58;;;;;;;45.2;32.8;;;;;;;10.79;58.59961;99151.34;;;;
2021/03/25 12:50:57;;;;;;;38.8;33.8;;;;;;;10.9;59.44434;99142.77;;;;
2021/03/25 13:00:56;;;;;;;40.2;31.3;;;;;;;11.02;58.0293;99131.52;;;;
2021/03/25 13:10:55;;;;;;;54.1;35.2;;;;;;;11.11;57.42871;99114.34;;;;
2021/03/25 13:20:54;;;;;;;42.5;33.4;;;;;;;11.17;58.33203;99098.08;;;;
2021/03/25 13:30:53;;;;;;;42.3;37.8;;;;;;;10.6;58.21094;99102.84;;;;
2021/03/25 13:40:52;;;;;;;39.9;35.6;;;;;;;11.3;60.78223;99089.98;;;;
2021/03/25 13:50:50;;;;;;;42.8;33.8;;;;;;;11.21;57.67871;99082.89;;;;
2021/03/25 14:00:49;;;;;;;38.9;33.4;;;;;;;11.35;59.07324;99075.6;;;;
2021/03/25 14:10:48;;;;;;;41.3;34.9;;;;;;;11.18;60.95801;99075.38;;;;
2021/03/25 14:20:47;;;;;;;40.1;35.1;;;;;;;11.02;59.66504;99059.49;;;;
2021/03/25 14:30:46;;;;;;;38.3;34.1;;;;;;;11.17;60.0127;99063;;;;
2021/03/25 14:40:45;;;;;;;43.6;36.4;;;;;;;11.13;58.36133;99053.91;;;;
2021/03/25 14:50:44;;;;;;;35.5;31.4;;;;;;;11.21;59.90527;99055.91;;;;
2021/03/25 15:00:43;;;;;;;43.1;33;;;;;;;11.31;59.91992;99043.02;;;;
2021/03/25 15:10:42;;;;;;;41.9;33.5;;;;;;;11.42;60.80957;99038.98;;;;
2021/03/25 15:20:41;;;;;;;39.6;34.7;;;;;;;11.04;60.62109;99035.7;;;;
2021/03/25 15:30:39;;;;;;;47.7;33.2;;;;;;;11.67;59.68457;99037.66;;;;
2021/03/25 15:40:38;;;;;;;43.8;36;;;;;;;12.15;56.84766;99035.23;;;;
2021/03/25 15:50:37;;;;;;;42.5;33.8;;;;;;;11.66;58.0459;99036.08;;;;
2021/03/25 16:00:36;;;;;;;41;33.8;;;;;;;11.62;59.24609;99029.68;;;;
2021/03/25 16:10:35;;;;;;;49.1;37.9;;;;;;;10.55;61.44824;99036.33;;;;
2021/03/25 16:20:34;;;;;;;58.9;38.4;;;;;;;10.07;62.60449;99041.14;;;;
2021/03/25 16:30:33;;;;;;;58.7;42.6;;;;;;;9.18;64.7002;99036.7;;;;
2021/03/25 16:40:31;;;;;;;41.6;34.9;;;;;;;8.56;66.06152;99033.07;;;;
2021/03/25 16:50:30;;;;;;;45.5;35.5;;;;;;;7.76;67.75098;99037.16;;;;
2021/03/25 17:00:29;;;;;;;49.8;42.2;;;;;;;6.78;70.35352;99033.54;;;;
2021/03/25 17:10:27;;;;;;;65.4;53.7;;;;;;;6.05;72.66406;99039.23;;;;
2021/03/25 17:20:25;;;;;;;144.2;105.1;;;;;;;5.48;74.41895;99046.59;;;;
2021/03/25 17:30:26;;;;;;;57.9;49.4;;;;;;;5.18;76.55176;99046.46;;;;
2021/03/25 17:40:22;;;;;;;73.7;55.6;;;;;;;4.82;77.5918;99067.67;;;;
2021/03/25 17:50:20;;;;;;;124.6;96.9;;;;;;;4.37;79.18848;99072.7;;;;
2021/03/25 18:00:18;;;;;;;113.6;90.5;;;;;;;4.15;80.83594;99086.11;;;;
2021/03/25 18:10:16;;;;;;;76.2;64.8;;;;;;;3.75;81.44922;99078.51;;;;
2021/03/25 18:20:14;;;;;;;78;55.8;;;;;;;3.48;83.11426;99091;;;;
2021/03/25 18:30:12;;;;;;;91.4;67.4;;;;;;;3.32;84.52246;99097.22;;;;
2021/03/25 18:40:10;;;;;;;76.4;58.8;;;;;;;3.25;86.01563;99101.92;;;;
2021/03/25 18:50:08;;;;;;;85.7;63.3;;;;;;;3.21;86.49316;99101.61;;;;
2021/03/25 19:00:05;;;;;;;74.4;52.6;;;;;;;3.11;86.43848;99098.01;;;;
2021/03/25 19:10:03;;;;;;;70.5;58.2;;;;;;;2.93;87.14453;99099.09;;;;
2021/03/25 19:20:01;;;;;;;89.1;64.6;;;;;;;2.82;87.94922;99105.31;;;;
2021/03/25 19:29:59;;;;;;;347.5;264;;;;;;;2.73;88.6709;99114.78;;;;
2021/03/25 19:39:57;;;;;;;210.6;165.8;;;;;;;2.57;89.7207;99116.38;;;;
2021/03/25 19:49:58;;;;;;;162.5;118.2;;;;;;;2.37;90.71387;99132.84;;;;
2021/03/25 19:59:53;;;;;;;140.2;100;;;;;;;2.22;92.29199;99137.89;;;;
2021/03/25 20:09:50;;;;;;;147.2;112.2;;;;;;;2.11;95.91895;99143.28;;;;
2021/03/25 20:19:48;;;;;;;125.7;100.7;;;;;;;2.04;97.58887;99148.75;;;;
2021/03/25 20:29:46;;;;;;;104.4;85.9;;;;;;;1.99;96.9834;99151.3;;;;
2021/03/25 20:39:44;;;;;;;112.2;71.9;;;;;;;2.01;96.87793;99157.2;;;;
2021/03/25 20:49:41;;;;;;;98.4;68.1;;;;;;;1.94;96.91602;99162.64;;;;
2021/03/25 20:59:39;;;;;;;99.2;79.8;;;;;;;1.99;97.71973;99178.7;;;;
2021/03/25 21:09:37;;;;;;;93.8;71;;;;;;;1.98;97.21191;99182.39;;;;
2021/03/25 21:19:35;;;;;;;97.8;68.6;;;;;;;1.9;97.21582;99190.76;;;;
2021/03/25 21:29:34;;;;;;;121.1;87.1;;;;;;;1.7;97.05078;99187.68;;;;
2021/03/25 21:39:30;;;;;;;93.4;76.2;;;;;;;1.49;96.25586;99190.98;;;;
2021/03/25 21:49:28;;;;;;;131.6;84.7;;;;;;;1.15;97.27441;99199.77;;;;
2021/03/25 21:59:25;;;;;;;148.7;117.4;;;;;;;0.88;97.88477;99200.23;;;;
2021/03/25 22:09:23;;;;;;;142;101.3;;;;;;;0.67;99.75195;99192.83;;;;
2021/03/25 22:19:21;;;;;;;144;103.6;;;;;;;0.5;100;99202.48;;;;
2021/03/25 22:29:18;;;;;;;124;89.7;;;;;;;0.3;100;99207.27;;;;
2021/03/25 22:39:16;;;;;;;123.6;91.5;;;;;;;0.14;100;99199.97;;;;
2021/03/25 22:49:13;;;;;;;114.8;89.1;;;;;;;-0.04;100;99208.77;;;;
2021/03/25 22:59:11;;;;;;;97.6;76.7;;;;;;;-0.09;100;99206.78;;;;
2021/03/25 23:09:08;;;;;;;100.4;76.9;;;;;;;-0.21;100;99205.11;;;;
2021/03/25 23:19:05;;;;;;;106.2;77.8;;;;;;;-0.35;100;99203.66;;;;
2021/03/25 23:29:03;;;;;;;93.8;77.7;;;;;;;-0.52;100;99211.35;;;;
2021/03/25 23:39:04;;;;;;;100.8;71.6;;;;;;;-0.64;100;99207.84;;;;
2021/03/25 23:48:58;;;;;;;99.7;71.6;;;;;;;-0.76;100;99202.45;;;;
2021/03/25 23:58:59;;;;;;;92.4;73.3;;;;;;;-0.85;100;99197.67;;;;
